Карточка аэропорта UOOO

Внимание!
Информация на этой странице в стадии наполнения.
Если вы не увидели какой-то информации, или заметили неточность - пожалуйста сообщите нам!
Спасибо!
Команда RU-STAFF
Название аэропортаАлыкель
Название аэропорта (англ.)Alykel
Превышение574 ft. (175 m.)
Координаты69°19.02', 87°19.02'
Высота перехода1200m
Эшелон переходаQFE>744:FL60;744>QFE>717:FL70;717>QFE:FL80
Коды ответчика5401-5427
Зона ОрВДКрасноярск РПИ (UNKL)
Данные METARUOOO 100100Z 26005MPS 9999 FEW007 BKN041 10/10 Q1012 R19/CLRD60 NOSIG RMK QFE743/0991
Проноз погоды (TAF)UOOO 091948Z 0921/1021 23005MPS 6000 SCT016CB BECMG 0922/0924 28006G12MPS BECMG 1016/1018 34003MPS TEMPO 1018/1021 BKN012CB
NOTAMshow/hide NOTAM
AWOS   TABLE

Информация о ВПП

ВПП Длина ВПП (м.) Покрытие Курс ВПП Частота ILS
013430Бетон13109.5
193430Бетон193110.3

Диспетчерские позиции

Позывной Наименование органа УВД Частота
UOOO_TWRНорильск - Старт118.300
UOOO_GNDНорильск - Руление121.700
UOOO_APPНорильск - Круг120.400



Спутниковое изображение